Terminal Aerodrome Forecast
Issued by NWS Caribou, ME

Home | Current Version | Previous Version | Text Only | Print | Product List | Glossary On
Versions: 1 2 3 4 5 6 7 8 9 10 11 12 13 14 15 16 17 18 19 20 21 22 23 24
475
FTUS41 KCAR 060148 AAA
TAFCAR
TAF AMD
KCAR 060148Z 0602/0624 03009KT P6SM VCSH OVC028
     FM061000 01009KT P6SM BKN035
     FM061500 36006KT P6SM SCT045=

USA.gov is the U.S. government's official web portal to all federal, state and local government web resources and services.